Time;durP1;ratioP1;P1;durP2;ratioP2;P2;SDS_P1;SDS_P2;PMS_P1;PMS_P2;Temp;Humidity;BMP_temperature;BMP_pressure;BME280_temperature;BME280_humidity;BME280_pressure;Samples;Min_cycle;Max_cycle;Signal;HPM_P1;HPM_P2
2022/01/22 00:01:08;;;;;;;17.10;9.63;;;4.40;99.90;;;;;;5050224;28;20236;-66
2022/01/22 00:03:38;;;;;;;17.47;9.80;;;4.40;99.90;;;;;;5049911;28;20201;-66
2022/01/22 00:06:08;;;;;;;15.70;9.33;;;4.40;99.90;;;;;;5045024;28;20205;-66
2022/01/22 00:08:39;;;;;;;15.67;9.40;;;4.40;99.90;;;;;;5048977;28;20801;-65
2022/01/22 00:11:08;;;;;;;16.43;10.00;;;4.40;99.90;;;;;;5049698;28;20635;-65
2022/01/22 00:16:34;;;;;;;19.33;10.23;;;4.40;99.90;;;;;;5050334;28;20783;-66
2022/01/22 00:19:08;;;;;;;17.57;10.13;;;4.40;99.90;;;;;;5052881;28;20744;-65
2022/01/22 00:21:37;;;;;;;17.70;10.50;;;4.40;99.90;;;;;;5049591;28;20228;-65
2022/01/22 00:24:16;;;;;;;19.67;9.40;;;4.40;99.90;;;;;;5049984;28;20227;-65
2022/01/22 00:26:46;;;;;;;13.73;9.40;;;4.40;99.90;;;;;;5047107;28;20283;-65
2022/01/22 00:29:16;;;;;;;16.60;11.03;;;4.50;99.90;;;;;;5043963;28;20291;-65
2022/01/22 00:31:46;;;;;;;16.97;11.10;;;4.50;99.90;;;;;;5046563;28;20217;-65
2022/01/22 00:34:18;;;;;;;19.30;11.17;;;4.50;99.90;;;;;;5052274;28;20245;-65
2022/01/22 00:36:50;;;;;;;22.07;11.17;;;4.50;99.90;;;;;;5049740;28;20555;-65
2022/01/22 00:39:20;;;;;;;20.83;11.33;;;4.50;99.90;;;;;;5036292;28;20275;-66
2022/01/22 00:41:52;;;;;;;17.87;11.30;;;4.50;99.90;;;;;;5050511;28;20189;-66
2022/01/22 00:44:22;;;;;;;17.67;10.93;;;4.50;99.90;;;;;;5044508;28;20205;-65
2022/01/22 00:46:51;;;;;;;19.57;11.57;;;4.50;99.90;;;;;;5048660;28;20205;-65
2022/01/22 00:49:25;;;;;;;18.67;12.13;;;4.50;99.90;;;;;;5054318;28;20283;-66
2022/01/22 00:51:55;;;;;;;20.77;12.47;;;4.50;99.90;;;;;;5052152;28;20212;-66
2022/01/22 00:54:33;;;;;;;17.53;11.30;;;4.50;99.90;;;;;;5027692;28;20199;-66
2022/01/22 00:57:04;;;;;;;24.97;12.47;;;4.50;99.90;;;;;;5046085;28;20596;-66
2022/01/22 00:59:41;;;;;;;18.17;11.57;;;4.50;99.90;;;;;;5034659;28;20275;-66
2022/01/22 01:02:09;;;;;;;19.73;12.03;;;4.50;99.90;;;;;;5045299;28;20348;-66
2022/01/22 01:04:54;;;;;;;22.70;12.17;;;4.50;99.90;;;;;;5053849;28;20283;-66
2022/01/22 01:07:23;;;;;;;24.53;12.63;;;4.50;99.90;;;;;;5046738;28;20189;-66
2022/01/22 01:09:52;;;;;;;14.47;11.47;;;4.50;99.90;;;;;;5047991;28;20189;-66
2022/01/22 01:12:21;;;;;;;20.93;11.93;;;4.50;99.90;;;;;;5048342;28;20220;-65
2022/01/22 01:15:11;;;;;;;19.87;12.67;;;4.50;99.90;;;;;;5043694;28;20220;-65
2022/01/22 01:18:04;;;;;;;25.23;12.17;;;4.60;99.90;;;;;;5047164;28;20203;-65
2022/01/22 01:32:16;;;;;;;26.50;12.23;;;4.60;99.90;;;;;;5048710;28;20248;-66
2022/01/22 01:34:50;;;;;;;21.37;13.30;;;4.60;99.90;;;;;;5052454;28;20208;-65
2022/01/22 01:37:22;;;;;;;20.33;12.03;;;4.60;99.90;;;;;;5052769;28;20204;-66
2022/01/22 01:39:59;;;;;;;20.37;12.60;;;4.60;99.90;;;;;;5047031;28;20209;-65
2022/01/22 01:42:36;;;;;;;22.10;13.03;;;4.60;99.90;;;;;;5048292;28;20271;-65
2022/01/22 01:45:10;;;;;;;20.33;12.73;;;4.60;99.90;;;;;;5047893;28;20200;-66
2022/01/22 01:47:43;;;;;;;21.53;13.53;;;4.60;99.90;;;;;;5049862;28;20204;-66
2022/01/22 01:50:14;;;;;;;20.37;12.97;;;4.60;99.90;;;;;;5047416;28;20196;-66
2022/01/22 01:52:48;;;;;;;22.37;13.40;;;4.60;99.90;;;;;;5051012;28;20215;-64
2022/01/22 01:55:35;;;;;;;22.90;14.73;;;4.60;99.90;;;;;;5051964;28;20192;-66
2022/01/22 01:58:08;;;;;;;23.27;12.80;;;4.60;99.90;;;;;;5044621;28;20335;-66
2022/01/22 02:00:39;;;;;;;19.27;13.67;;;4.60;99.90;;;;;;5046528;28;20204;-65
2022/01/22 02:03:09;;;;;;;23.50;14.27;;;4.60;99.90;;;;;;5042537;28;20212;-65
2022/01/22 02:05:45;;;;;;;22.47;14.83;;;4.60;99.90;;;;;;5042666;28;20188;-65
2022/01/22 02:08:19;;;;;;;21.87;13.67;;;4.60;99.90;;;;;;5044776;28;20204;-65
2022/01/22 02:11:05;;;;;;;26.47;14.67;;;4.60;99.90;;;;;;5044439;28;20192;-65
2022/01/22 02:13:47;;;;;;;26.63;15.13;;;4.60;99.90;;;;;;5046615;28;20212;-65
2022/01/22 02:25:03;;;;;;;30.97;15.23;;;4.60;99.90;;;;;;5044349;28;20659;-66
2022/01/22 02:27:34;;;;;;;25.37;15.03;;;4.70;99.90;;;;;;5048432;28;20231;-65
2022/01/22 02:30:07;;;;;;;31.00;14.70;;;4.70;99.90;;;;;;5045840;28;20277;-66
2022/01/22 02:33:01;;;;;;;25.40;15.83;;;4.60;99.90;;;;;;5038646;28;20269;-66
2022/01/22 02:35:41;;;;;;;23.47;15.63;;;4.60;99.90;;;;;;5046614;28;20634;-66
2022/01/22 02:38:18;;;;;;;26.30;15.80;;;4.70;99.90;;;;;;5046634;28;20555;-65
2022/01/22 02:40:53;;;;;;;27.67;15.87;;;4.70;99.90;;;;;;5050022;28;20188;-67
2022/01/22 02:43:22;;;;;;;26.60;15.97;;;4.70;99.90;;;;;;5051217;28;20192;-66
2022/01/22 02:45:54;;;;;;;31.63;16.33;;;4.70;99.90;;;;;;5052722;28;20534;-65
2022/01/22 02:48:33;;;;;;;30.73;16.00;;;4.70;99.90;;;;;;5042482;28;20196;-65
2022/01/22 02:51:03;;;;;;;30.80;15.90;;;4.70;99.90;;;;;;5044434;28;20198;-65
2022/01/22 02:53:40;;;;;;;25.90;16.20;;;4.70;99.90;;;;;;5045524;28;20224;-66
2022/01/22 02:56:10;;;;;;;31.70;16.73;;;4.70;99.90;;;;;;5036424;28;20619;-66
2022/01/22 02:58:39;;;;;;;30.80;17.80;;;4.70;99.90;;;;;;5041253;28;20200;-65
2022/01/22 03:01:10;;;;;;;30.07;16.33;;;4.70;99.90;;;;;;5046068;28;20204;-65
2022/01/22 03:03:39;;;;;;;28.50;17.03;;;4.70;99.90;;;;;;5040598;28;20213;-66
2022/01/22 03:06:14;;;;;;;28.17;17.77;;;4.70;99.90;;;;;;5045294;28;20197;-66
2022/01/22 03:08:48;;;;;;;31.63;16.70;;;4.70;99.90;;;;;;5047247;28;20208;-65
2022/01/22 03:11:20;;;;;;;33.30;18.03;;;4.70;99.90;;;;;;5045765;28;20706;-66
2022/01/22 03:14:33;;;;;;;31.67;16.77;;;4.70;99.90;;;;;;5045998;28;20211;-66
2022/01/22 03:17:11;;;;;;;33.60;17.47;;;4.70;99.90;;;;;;5048591;28;20209;-66
2022/01/22 03:20:05;;;;;;;33.20;18.57;;;4.70;99.90;;;;;;5051721;28;20286;-66
2022/01/22 03:23:05;;;;;;;31.03;18.13;;;4.70;99.90;;;;;;5050166;28;20192;-66
2022/01/22 03:28:41;;;;;;;32.07;18.60;;;4.70;99.90;;;;;;5050834;28;20191;-65
2022/01/22 03:31:18;;;;;;;31.73;18.17;;;4.80;99.90;;;;;;5050790;28;20262;-66
2022/01/22 03:33:47;;;;;;;36.50;19.50;;;4.70;99.90;;;;;;5045805;28;20264;-66
2022/01/22 03:36:16;;;;;;;31.57;18.73;;;4.70;99.90;;;;;;5050503;28;20205;-66
2022/01/22 03:38:49;;;;;;;31.53;18.13;;;4.70;99.90;;;;;;5046979;28;20216;-65
2022/01/22 03:41:18;;;;;;;34.80;19.23;;;4.70;99.90;;;;;;5047807;28;20192;-66
2022/01/22 03:43:52;;;;;;;36.70;18.77;;;4.70;99.90;;;;;;5050581;28;20207;-65
2022/01/22 03:46:24;;;;;;;34.17;19.17;;;4.80;99.90;;;;;;5049506;28;20290;-66
2022/01/22 03:48:57;;;;;;;39.50;20.00;;;4.70;99.90;;;;;;5046237;28;20189;-65
2022/01/22 03:51:26;;;;;;;33.90;19.10;;;4.80;99.90;;;;;;5047550;28;20279;-65
2022/01/22 03:53:58;;;;;;;36.83;19.50;;;4.80;99.90;;;;;;5052796;28;20209;-64
2022/01/22 03:56:30;;;;;;;39.83;19.60;;;4.80;99.90;;;;;;5050568;28;20213;-66
2022/01/22 03:59:01;;;;;;;37.90;20.80;;;4.80;99.90;;;;;;5048853;28;20197;-65
2022/01/22 04:02:09;;;;;;;36.37;21.03;;;4.80;99.90;;;;;;5048489;28;20205;-66
2022/01/22 04:04:41;;;;;;;42.80;19.83;;;4.80;99.90;;;;;;5043291;28;20225;-66
2022/01/22 04:10:14;;;;;;;40.63;21.07;;;4.80;99.90;;;;;;5046317;28;20192;-65
2022/01/22 04:12:55;;;;;;;40.00;20.80;;;4.70;99.90;;;;;;5033189;28;20201;-66
2022/01/22 04:15:26;;;;;;;38.63;20.63;;;4.80;99.90;;;;;;5046524;28;20189;-66
2022/01/22 04:26:40;;;;;;;37.07;20.37;;;4.80;99.90;;;;;;5041855;28;20196;-66
2022/01/22 04:29:11;;;;;;;38.47;21.00;;;4.80;99.90;;;;;;5054630;28;20200;-66
2022/01/22 04:31:46;;;;;;;37.53;20.57;;;4.80;99.90;;;;;;5046767;28;20578;-66
2022/01/22 04:34:20;;;;;;;37.67;21.27;;;4.80;99.90;;;;;;5042836;28;20238;-66
2022/01/22 04:36:49;;;;;;;39.33;20.60;;;4.80;99.90;;;;;;5047161;28;20279;-66
2022/01/22 04:39:21;;;;;;;39.93;20.60;;;4.70;99.90;;;;;;5042985;28;20279;-66
2022/01/22 04:41:59;;;;;;;36.70;20.43;;;4.80;99.90;;;;;;5044848;28;20244;-65
2022/01/22 04:44:35;;;;;;;36.87;20.73;;;4.80;99.90;;;;;;5055214;28;20224;-66
2022/01/22 04:47:17;;;;;;;42.13;22.17;;;4.80;99.90;;;;;;5051125;28;20205;-66
2022/01/22 04:55:41;;;;;;;44.57;22.30;;;4.80;99.90;;;;;;5046816;28;20209;-66
2022/01/22 04:58:14;;;;;;;41.33;22.50;;;4.80;99.90;;;;;;5053434;28;20286;-66
2022/01/22 05:00:46;;;;;;;48.40;22.83;;;4.80;99.90;;;;;;5045182;28;20744;-66
2022/01/22 05:03:23;;;;;;;47.13;22.40;;;4.80;99.90;;;;;;5042141;28;20204;-66
2022/01/22 05:05:59;;;;;;;41.77;22.47;;;4.80;99.90;;;;;;5045208;28;20196;-65
2022/01/22 05:08:29;;;;;;;43.00;22.33;;;4.80;99.90;;;;;;5045067;28;20236;-66
2022/01/22 05:11:00;;;;;;;41.27;21.30;;;4.80;99.90;;;;;;5047225;28;20188;-66
2022/01/22 05:13:34;;;;;;;44.83;22.70;;;4.80;99.90;;;;;;5046899;28;20205;-66
2022/01/22 05:16:08;;;;;;;41.07;22.03;;;4.80;99.90;;;;;;5045128;28;20191;-66
2022/01/22 05:18:47;;;;;;;47.80;23.90;;;4.80;99.90;;;;;;5045740;28;20255;-66
2022/01/22 05:21:19;;;;;;;47.73;23.07;;;4.80;99.90;;;;;;5057123;28;20276;-66
2022/01/22 05:23:51;;;;;;;45.07;22.30;;;4.90;99.90;;;;;;5046527;28;20211;-66
2022/01/22 05:26:49;;;;;;;39.43;22.10;;;4.80;99.90;;;;;;5048323;28;20205;-66
2022/01/22 05:29:45;;;;;;;44.00;22.30;;;4.90;99.90;;;;;;5046187;28;20266;-66
2022/01/22 05:32:33;;;;;;;52.33;23.17;;;4.90;99.90;;;;;;5047603;28;20917;-66
2022/01/22 05:37:51;;;;;;;51.27;22.87;;;5.00;99.90;;;;;;5047592;28;20234;-65
2022/01/22 05:40:21;;;;;;;48.67;22.20;;;5.00;99.90;;;;;;5049775;28;20769;-65
2022/01/22 05:42:52;;;;;;;43.10;22.33;;;5.00;99.90;;;;;;5043238;28;20216;-66
2022/01/22 05:45:22;;;;;;;49.37;22.10;;;5.00;99.90;;;;;;5046482;28;20652;-66
2022/01/22 05:47:57;;;;;;;45.50;21.47;;;5.00;99.90;;;;;;5052738;28;20262;-65
2022/01/22 05:50:30;;;;;;;43.17;22.40;;;5.00;99.90;;;;;;5044768;28;20703;-65
2022/01/22 05:53:18;;;;;;;45.20;22.43;;;5.00;99.90;;;;;;5049562;28;20204;-66
2022/01/22 06:01:37;;;;;;;46.63;22.20;;;5.00;99.90;;;;;;5041397;28;20208;-65
2022/01/22 06:04:49;;;;;;;46.03;21.83;;;5.00;99.90;;;;;;5044209;28;20196;-66
2022/01/22 06:07:56;;;;;;;34.60;20.83;;;5.00;99.90;;;;;;5045718;28;20254;-66
2022/01/22 06:10:32;;;;;;;45.70;22.33;;;5.10;99.90;;;;;;5045892;28;20667;-66
2022/01/22 06:13:13;;;;;;;46.90;21.83;;;5.10;99.90;;;;;;5044318;28;20622;-66
2022/01/22 06:15:45;;;;;;;42.27;21.47;;;5.10;99.90;;;;;;5044053;28;20225;-66
2022/01/22 06:18:13;;;;;;;44.17;21.90;;;5.10;99.90;;;;;;5042812;28;20196;-66
2022/01/22 06:20:43;;;;;;;42.40;22.80;;;5.10;99.90;;;;;;5044106;28;20646;-66
2022/01/22 06:23:14;;;;;;;44.50;23.27;;;5.10;99.90;;;;;;5045324;28;20695;-66
2022/01/22 06:25:45;;;;;;;43.03;22.93;;;5.10;99.90;;;;;;5042220;28;20216;-66
2022/01/22 06:28:16;;;;;;;49.17;23.23;;;5.10;99.90;;;;;;5048178;28;20287;-66
2022/01/22 06:30:50;;;;;;;40.40;21.77;;;5.10;99.90;;;;;;5043332;28;20592;-66
2022/01/22 06:33:24;;;;;;;42.07;21.33;;;5.10;99.90;;;;;;5029457;28;20738;-66
2022/01/22 06:35:55;;;;;;;42.47;22.47;;;5.10;99.90;;;;;;5043936;28;20203;-66
2022/01/22 06:38:34;;;;;;;41.43;21.70;;;5.10;99.90;;;;;;5043297;28;20195;-66
2022/01/22 06:43:56;;;;;;;42.03;22.07;;;5.10;99.90;;;;;;5042611;28;20208;-66
2022/01/22 06:46:26;;;;;;;45.43;23.13;;;5.10;99.90;;;;;;5038512;28;20284;-66
2022/01/22 06:48:59;;;;;;;47.63;25.37;;;5.10;99.90;;;;;;5042680;28;20207;-66
2022/01/22 06:51:36;;;;;;;50.17;25.83;;;5.10;99.90;;;;;;5044316;28;20280;-66
2022/01/22 06:54:11;;;;;;;43.73;23.60;;;5.20;99.90;;;;;;5041217;28;20196;-66
2022/01/22 06:56:40;;;;;;;43.37;23.07;;;5.20;99.90;;;;;;5041281;28;20756;-66
2022/01/22 06:59:12;;;;;;;47.60;22.43;;;5.20;99.90;;;;;;5037915;28;20210;-65
2022/01/22 07:01:43;;;;;;;42.83;23.27;;;5.20;99.90;;;;;;5044136;28;20197;-66
2022/01/22 07:04:21;;;;;;;56.07;29.63;;;5.20;99.90;;;;;;5042111;28;20204;-66
2022/01/22 07:06:51;;;;;;;54.27;27.73;;;5.20;99.90;;;;;;5044188;28;20217;-66
2022/01/22 07:09:29;;;;;;;55.40;28.50;;;5.20;99.90;;;;;;5042194;28;20203;-66
2022/01/22 07:12:08;;;;;;;61.20;31.13;;;5.20;99.90;;;;;;5047807;28;20626;-66
2022/01/22 07:14:48;;;;;;;73.70;37.30;;;5.20;99.90;;;;;;5048890;28;20287;-66
2022/01/22 07:17:19;;;;;;;70.70;36.90;;;5.20;99.90;;;;;;5043688;28;20562;-66
2022/01/22 07:19:52;;;;;;;62.80;32.00;;;5.20;99.90;;;;;;5040608;28;20196;-66
2022/01/22 07:22:37;;;;;;;49.07;25.77;;;5.20;99.90;;;;;;5043348;28;20201;-66
2022/01/22 07:25:10;;;;;;;46.63;23.97;;;5.20;99.90;;;;;;5042272;28;20817;-66
2022/01/22 07:27:39;;;;;;;41.00;22.37;;;5.20;99.90;;;;;;5040912;28;20557;-66
2022/01/22 07:30:09;;;;;;;41.93;22.40;;;5.20;99.90;;;;;;5041354;28;20727;-66
2022/01/22 07:32:42;;;;;;;38.70;22.20;;;5.20;99.90;;;;;;5044736;28;20193;-66
2022/01/22 07:35:16;;;;;;;40.77;21.10;;;5.20;99.90;;;;;;5047048;28;20579;-66
2022/01/22 07:37:54;;;;;;;54.17;26.50;;;5.20;99.90;;;;;;5044172;28;20793;-66
2022/01/22 07:40:23;;;;;;;60.73;27.57;;;5.20;99.90;;;;;;5045145;28;20233;-66
2022/01/22 07:42:59;;;;;;;66.60;29.97;;;5.20;99.90;;;;;;5042463;28;20201;-66
2022/01/22 07:45:28;;;;;;;87.77;36.73;;;5.20;99.90;;;;;;5037710;28;20189;-66
2022/01/22 07:47:56;;;;;;;64.97;30.13;;;5.20;99.90;;;;;;5042589;28;20735;-66
2022/01/22 07:50:25;;;;;;;61.93;27.40;;;5.20;99.90;;;;;;5036402;28;20203;-66
2022/01/22 07:52:57;;;;;;;46.27;23.80;;;5.20;99.90;;;;;;5042722;28;20728;-66
2022/01/22 07:55:27;;;;;;;50.77;24.43;;;5.20;99.90;;;;;;5040957;28;20220;-66
2022/01/22 07:57:59;;;;;;;46.50;22.70;;;5.20;99.90;;;;;;5044518;28;20198;-66
2022/01/22 08:00:30;;;;;;;40.30;22.83;;;5.20;99.90;;;;;;5044006;28;20193;-66
2022/01/22 08:02:59;;;;;;;45.60;23.47;;;5.20;99.90;;;;;;5043698;28;20272;-66
2022/01/22 08:05:30;;;;;;;44.67;22.67;;;5.20;99.90;;;;;;5050809;28;20303;-66
2022/01/22 08:08:01;;;;;;;44.10;22.53;;;5.30;99.90;;;;;;5058786;28;20215;-66
2022/01/22 08:10:33;;;;;;;47.10;22.90;;;5.30;99.90;;;;;;5062333;28;20279;-66
2022/01/22 08:13:07;;;;;;;48.20;22.90;;;5.30;99.90;;;;;;5046933;28;20235;-66
2022/01/22 08:15:38;;;;;;;47.27;22.67;;;5.30;99.90;;;;;;5055796;28;20219;-66
2022/01/22 08:18:08;;;;;;;40.83;22.50;;;5.30;99.90;;;;;;5047320;28;20209;-66
2022/01/22 08:20:42;;;;;;;45.37;22.73;;;5.30;99.90;;;;;;5051075;28;20189;-66
2022/01/22 08:23:12;;;;;;;42.13;22.20;;;5.30;99.90;;;;;;5050944;28;20279;-66
2022/01/22 08:25:45;;;;;;;39.13;22.33;;;5.40;99.90;;;;;;5053304;28;20321;-66
2022/01/22 08:31:20;;;;;;;40.73;22.13;;;5.40;99.90;;;;;;5046182;28;20288;-66
2022/01/22 08:36:42;;;;;;;40.33;22.20;;;5.40;99.90;;;;;;5051581;28;20225;-66
2022/01/22 08:39:17;;;;;;;43.60;23.77;;;5.40;99.90;;;;;;5040801;28;20279;-66
2022/01/22 08:41:58;;;;;;;35.87;20.83;;;5.50;99.90;;;;;;5047687;28;20280;-66
2022/01/22 08:44:28;;;;;;;41.83;22.37;;;5.50;99.90;;;;;;5044277;28;22349;-66
2022/01/22 08:47:08;;;;;;;46.53;23.47;;;5.50;99.90;;;;;;5039104;28;20367;-66
2022/01/22 08:49:40;;;;;;;38.73;22.30;;;5.50;99.90;;;;;;5043364;28;20204;-66
2022/01/22 08:52:13;;;;;;;45.03;22.07;;;5.60;99.90;;;;;;5043547;28;20204;-66
2022/01/22 08:54:51;;;;;;;44.17;23.77;;;5.60;99.90;;;;;;5043403;28;20312;-66
2022/01/22 08:57:27;;;;;;;42.17;22.90;;;5.60;99.90;;;;;;5037432;28;20225;-66
2022/01/22 09:00:06;;;;;;;39.57;22.53;;;5.70;99.90;;;;;;5038978;28;20669;-66
2022/01/22 09:02:39;;;;;;;45.33;23.93;;;5.70;99.90;;;;;;5041381;28;20283;-66
2022/01/22 09:05:10;;;;;;;39.50;22.30;;;5.70;99.90;;;;;;5045719;28;20342;-66
2022/01/22 09:07:48;;;;;;;39.10;22.47;;;5.80;99.90;;;;;;5045287;28;20228;-66
2022/01/22 09:10:18;;;;;;;41.30;23.07;;;5.80;99.90;;;;;;5048697;28;20250;-66
2022/01/22 09:12:50;;;;;;;41.20;22.40;;;5.80;99.90;;;;;;5050463;28;20239;-66
2022/01/22 09:15:24;;;;;;;42.63;23.47;;;5.80;99.90;;;;;;5050241;28;20215;-66
2022/01/22 09:17:54;;;;;;;40.83;22.73;;;5.80;99.90;;;;;;5049765;28;20225;-66
2022/01/22 09:20:55;;;;;;;43.80;23.33;;;5.90;99.90;;;;;;5045075;28;20272;-66
2022/01/22 09:23:25;;;;;;;42.83;22.03;;;5.90;99.90;;;;;;5040735;28;20614;-66
2022/01/22 09:25:55;;;;;;;38.90;21.87;;;5.90;99.90;;;;;;5043975;28;20911;-66
2022/01/22 09:28:25;;;;;;;44.03;22.00;;;5.90;99.90;;;;;;5047965;28;20199;-65
2022/01/22 09:30:55;;;;;;;42.47;22.57;;;5.90;99.90;;;;;;5044491;28;20283;-67
2022/01/22 09:33:25;;;;;;;44.77;22.43;;;5.90;99.90;;;;;;5046863;28;20228;-66
2022/01/22 09:35:54;;;;;;;46.47;21.60;;;5.90;99.90;;;;;;5047597;28;20301;-66
2022/01/22 09:38:25;;;;;;;37.50;22.10;;;6.00;99.90;;;;;;5045327;28;20232;-66
2022/01/22 09:40:55;;;;;;;61.30;33.53;;;6.00;99.90;;;;;;5055063;28;20203;-66
2022/01/22 09:43:24;;;;;;;49.43;23.13;;;6.10;99.90;;;;;;5055479;28;20200;-66
2022/01/22 09:45:53;;;;;;;43.60;21.33;;;6.10;99.90;;;;;;5036934;28;20193;-66
2022/01/22 09:48:27;;;;;;;37.63;21.70;;;6.10;99.90;;;;;;5047838;28;20213;-67
2022/01/22 09:50:57;;;;;;;39.87;21.80;;;6.10;99.90;;;;;;5041859;28;20194;-66
2022/01/22 09:53:32;;;;;;;36.77;21.63;;;6.10;99.90;;;;;;5041935;28;20272;-66
2022/01/22 09:56:06;;;;;;;45.97;23.57;;;6.20;99.90;;;;;;5049969;28;20286;-66
2022/01/22 09:58:37;;;;;;;40.40;21.73;;;6.20;99.90;;;;;;5042100;28;20258;-65
2022/01/22 10:01:30;;;;;;;35.93;21.90;;;6.30;99.90;;;;;;5045735;28;20272;-66
2022/01/22 10:04:08;;;;;;;51.37;28.50;;;6.30;99.90;;;;;;5038237;28;20287;-66
2022/01/22 10:06:50;;;;;;;40.77;22.83;;;6.30;99.90;;;;;;5047092;28;20719;-66
2022/01/22 10:09:28;;;;;;;40.90;23.20;;;6.30;99.90;;;;;;5042093;28;20200;-66
2022/01/22 10:12:21;;;;;;;37.53;22.07;;;6.30;99.90;;;;;;5030609;28;20205;-66
2022/01/22 10:15:08;;;;;;;37.17;21.37;;;6.30;99.90;;;;;;5045413;28;20202;-66
2022/01/22 10:17:42;;;;;;;41.30;22.20;;;6.30;99.90;;;;;;5042726;28;20270;-65
2022/01/22 10:20:34;;;;;;;42.60;22.13;;;6.30;99.90;;;;;;5043958;28;20295;-66
2022/01/22 10:23:18;;;;;;;46.53;23.47;;;6.40;99.90;;;;;;5046218;28;20236;-66
2022/01/22 10:26:03;;;;;;;39.43;22.03;;;6.50;99.90;;;;;;5039662;28;20698;-66
2022/01/22 10:28:49;;;;;;;47.83;27.27;;;6.50;99.90;;;;;;5045550;28;20207;-66
2022/01/22 10:31:29;;;;;;;37.50;21.63;;;6.60;99.90;;;;;;5032035;28;20203;-66
2022/01/22 10:34:06;;;;;;;34.30;19.90;;;6.60;99.90;;;;;;5042573;28;20710;-66
2022/01/22 10:36:39;;;;;;;35.50;20.97;;;6.60;99.90;;;;;;5035256;28;20299;-66
2022/01/22 10:39:09;;;;;;;39.77;21.97;;;6.60;99.90;;;;;;5045837;28;20276;-66
2022/01/22 10:41:43;;;;;;;36.73;21.47;;;6.60;99.90;;;;;;5047677;28;20193;-66
2022/01/22 10:44:19;;;;;;;42.13;24.20;;;6.50;99.90;;;;;;5059823;28;20220;-66
2022/01/22 10:47:03;;;;;;;38.23;23.33;;;6.50;99.90;;;;;;5032085;28;20234;-66
2022/01/22 10:49:32;;;;;;;34.90;22.40;;;6.50;99.90;;;;;;5041606;28;20207;-66
2022/01/22 10:52:07;;;;;;;42.43;22.53;;;6.50;99.90;;;;;;5040437;28;20843;-66
2022/01/22 10:54:39;;;;;;;40.70;23.30;;;6.50;99.90;;;;;;5028342;28;20197;-66
2022/01/22 10:57:20;;;;;;;36.57;21.47;;;6.60;99.90;;;;;;5056685;28;20280;-67
2022/01/22 10:59:56;;;;;;;34.83;20.37;;;6.60;99.90;;;;;;5067969;28;20188;-67
2022/01/22 11:02:35;;;;;;;37.80;20.90;;;6.60;99.90;;;;;;5058598;28;20226;-66
2022/01/22 11:05:06;;;;;;;37.63;22.13;;;6.60;99.90;;;;;;5057609;28;20179;-66
2022/01/22 11:14:51;;;;;;;34.97;21.63;;;6.60;99.90;;;;;;5047260;28;20199;-66
2022/01/22 11:17:59;;;;;;;39.47;21.60;;;6.60;99.90;;;;;;5050482;28;20219;-66
2022/01/22 11:21:06;;;;;;;41.27;22.30;;;6.60;99.90;;;;;;5053897;28;20192;-66
2022/01/22 11:24:13;;;;;;;33.13;19.97;;;6.60;99.90;;;;;;5050264;28;20195;-66
2022/01/22 11:27:20;;;;;;;36.10;20.70;;;6.60;99.90;;;;;;5052003;28;20200;-66
2022/01/22 11:30:29;;;;;;;35.77;20.77;;;6.50;99.90;;;;;;5054078;28;20180;-67
2022/01/22 11:33:40;;;;;;;37.13;21.57;;;6.50;99.90;;;;;;5053472;28;20296;-66
2022/01/22 11:36:53;;;;;;;37.90;21.80;;;6.60;99.90;;;;;;5053444;28;20658;-66
2022/01/22 11:40:14;;;;;;;36.90;20.17;;;6.60;99.90;;;;;;5059896;28;20247;-67
2022/01/22 11:43:33;;;;;;;33.93;19.90;;;6.60;99.90;;;;;;5060175;28;20468;-66
2022/01/22 11:46:45;;;;;;;33.43;19.93;;;6.60;99.90;;;;;;5059988;28;20179;-67
2022/01/22 11:50:13;;;;;;;35.03;19.20;;;6.60;99.90;;;;;;5058224;28;20195;-66
2022/01/22 11:53:24;;;;;;;32.70;19.10;;;6.70;99.90;;;;;;5053291;28;20291;-65
2022/01/22 11:56:32;;;;;;;31.23;18.93;;;6.60;99.90;;;;;;5061942;28;20187;-66
2022/01/22 11:59:37;;;;;;;33.20;19.43;;;6.70;99.90;;;;;;5062792;28;20188;-66
2022/01/22 12:02:45;;;;;;;32.83;19.77;;;6.70;99.90;;;;;;5056239;28;20184;-66
2022/01/22 12:05:14;;;;;;;30.70;19.33;;;6.70;99.90;;;;;;5061013;28;20369;-66
2022/01/22 12:07:58;;;;;;;32.40;19.30;;;6.70;99.90;;;;;;5053464;28;20176;-66
2022/01/22 12:10:38;;;;;;;35.10;20.10;;;6.70;99.90;;;;;;5056513;28;20418;-66
2022/01/22 12:16:14;;;;;;;34.43;21.17;;;6.70;99.90;;;;;;5056841;28;20221;-65
2022/01/22 12:18:49;;;;;;;35.30;21.10;;;6.70;99.90;;;;;;5057149;28;20330;-67
2022/01/22 12:21:45;;;;;;;33.73;20.33;;;6.70;99.90;;;;;;5059650;28;20197;-66
2022/01/22 12:24:14;;;;;;;35.30;21.60;;;6.70;99.90;;;;;;5021496;28;20319;-66
2022/01/22 12:26:50;;;;;;;37.13;22.27;;;6.70;99.90;;;;;;5060901;28;20318;-67
2022/01/22 12:29:40;;;;;;;40.13;22.50;;;6.70;99.90;;;;;;5054870;28;20199;-66
2022/01/22 12:32:35;;;;;;;40.37;22.90;;;6.70;99.90;;;;;;5064256;28;20235;-66
2022/01/22 12:35:09;;;;;;;36.23;22.20;;;6.70;99.90;;;;;;5051756;28;20461;-66
2022/01/22 12:37:48;;;;;;;42.03;23.00;;;6.70;99.90;;;;;;5051933;28;20212;-67
2022/01/22 12:40:33;;;;;;;41.27;23.70;;;6.70;99.90;;;;;;5054189;28;20188;-66
2022/01/22 12:43:09;;;;;;;38.00;22.57;;;6.60;99.90;;;;;;5057365;28;20177;-66
2022/01/22 12:45:40;;;;;;;40.70;23.37;;;6.60;99.90;;;;;;5057565;28;20176;-66
2022/01/22 12:48:11;;;;;;;50.77;25.97;;;6.60;99.90;;;;;;5061032;28;20394;-65
2022/01/22 12:50:41;;;;;;;36.97;22.30;;;6.60;99.90;;;;;;5054812;28;20196;-66
2022/01/22 12:53:13;;;;;;;39.73;23.03;;;6.60;99.90;;;;;;5055812;28;20201;-66
2022/01/22 12:58:38;;;;;;;38.00;21.97;;;6.70;99.90;;;;;;5050907;28;20275;-66
2022/01/22 13:01:23;;;;;;;41.00;21.50;;;6.70;99.90;;;;;;5052632;28;20169;-66
2022/01/22 13:03:53;;;;;;;34.77;20.67;;;6.70;99.90;;;;;;5053763;28;20207;-66
2022/01/22 13:06:26;;;;;;;37.43;22.10;;;6.70;99.90;;;;;;5052063;28;20180;-67
2022/01/22 13:08:57;;;;;;;35.80;21.43;;;6.70;99.90;;;;;;5057210;28;20204;-66
2022/01/22 13:11:27;;;;;;;38.40;22.37;;;6.70;99.90;;;;;;5053425;28;20446;-66
2022/01/22 13:13:56;;;;;;;36.57;21.53;;;6.70;99.90;;;;;;5058907;28;20173;-66
2022/01/22 13:16:24;;;;;;;38.20;22.00;;;6.70;99.90;;;;;;5057928;28;20211;-67
2022/01/22 13:18:57;;;;;;;38.87;23.30;;;6.60;99.90;;;;;;5052267;28;20201;-66
2022/01/22 13:21:28;;;;;;;40.43;23.57;;;6.60;99.90;;;;;;5057149;28;20177;-66
2022/01/22 13:24:02;;;;;;;37.27;22.80;;;6.60;99.90;;;;;;5061107;28;20182;-66
2022/01/22 13:26:44;;;;;;;33.23;20.60;;;6.60;99.90;;;;;;5055849;28;20176;-66
2022/01/22 13:29:22;;;;;;;35.30;21.27;;;6.60;99.90;;;;;;5055482;28;20192;-66
2022/01/22 13:32:03;;;;;;;35.43;21.23;;;6.60;99.90;;;;;;5046645;28;20181;-66
2022/01/22 13:34:53;;;;;;;39.97;21.83;;;6.60;99.90;;;;;;5059939;28;20293;-66
2022/01/22 13:40:33;;;;;;;34.73;21.43;;;6.50;99.90;;;;;;5048962;28;20260;-66
2022/01/22 13:48:38;;;;;;;40.30;22.73;;;6.40;99.90;;;;;;5060797;28;20204;-66
2022/01/22 13:51:07;;;;;;;34.10;21.50;;;6.40;99.90;;;;;;5052288;28;20234;-66
2022/01/22 13:53:39;;;;;;;39.90;21.63;;;6.40;99.90;;;;;;5054695;28;20181;-66
2022/01/22 13:56:11;;;;;;;38.27;21.80;;;6.40;99.90;;;;;;5053861;28;20364;-66
2022/01/22 13:58:40;;;;;;;40.40;21.23;;;6.40;99.90;;;;;;5055655;28;20201;-66
2022/01/22 14:01:18;;;;;;;31.13;20.03;;;6.40;99.90;;;;;;5051513;28;20192;-65
2022/01/22 14:04:09;;;;;;;36.43;21.83;;;6.50;99.90;;;;;;5058105;28;20200;-66
2022/01/22 14:06:37;;;;;;;40.77;22.53;;;6.50;99.90;;;;;;5062442;28;20184;-66
2022/01/22 14:09:15;;;;;;;43.57;23.83;;;6.50;99.90;;;;;;5057651;28;20227;-66
2022/01/22 14:12:06;;;;;;;39.63;22.23;;;6.50;99.90;;;;;;5052999;28;20220;-66
2022/01/22 14:15:04;;;;;;;38.57;23.93;;;6.50;99.90;;;;;;5057484;28;20190;-66
2022/01/22 14:17:39;;;;;;;39.80;23.60;;;6.40;99.90;;;;;;5052154;28;20189;-66
2022/01/22 14:20:11;;;;;;;37.93;22.60;;;6.50;99.90;;;;;;5052568;28;20180;-66
2022/01/22 14:23:03;;;;;;;44.87;23.80;;;6.50;99.90;;;;;;5056551;28;20196;-66
2022/01/22 14:25:35;;;;;;;38.37;23.23;;;6.40;99.90;;;;;;5040319;28;20402;-66
2022/01/22 14:28:09;;;;;;;55.57;27.13;;;6.40;99.90;;;;;;5058110;28;20197;-66
2022/01/22 14:30:41;;;;;;;49.27;23.80;;;6.40;99.90;;;;;;5051496;28;20183;-67
2022/01/22 14:33:11;;;;;;;46.33;23.07;;;6.40;99.90;;;;;;5054478;28;20371;-66
2022/01/22 14:35:41;;;;;;;34.83;21.37;;;6.40;99.90;;;;;;5048410;28;20201;-67
2022/01/22 14:38:44;;;;;;;36.50;21.57;;;6.40;99.90;;;;;;5055177;28;20192;-66
2022/01/22 14:46:54;;;;;;;37.33;21.90;;;6.30;99.90;;;;;;5058455;28;20199;-66
2022/01/22 14:49:24;;;;;;;39.93;22.93;;;6.30;99.90;;;;;;5060227;28;20329;-67
2022/01/22 14:51:53;;;;;;;36.87;21.13;;;6.40;99.90;;;;;;5059939;28;20197;-66
2022/01/22 14:54:23;;;;;;;36.43;21.93;;;6.40;99.90;;;;;;5052253;28;20169;-66
2022/01/22 14:56:53;;;;;;;37.07;22.87;;;6.30;99.90;;;;;;5048817;28;20488;-66